Time;durP1;ratioP1;P1;durP2;ratioP2;P2;SDS_P1;SDS_P2;PMS_P1;PMS_P2;Temp;Humidity;BMP_temperature;BMP_pressure;BME280_temperature;BME280_humidity;BME280_pressure;Samples;Min_cycle;Max_cycle;Signal;HPM_P1;HPM_P2
2021/09/16 00:02:09;;;;;;;3.93;1.70;;;;;;;29.43;61.14;97795.88;5012881;28;20199;-72
2021/09/16 00:04:36;;;;;;;3.43;1.60;;;;;;;29.38;61.60;97800.75;5000046;28;20599;-74
2021/09/16 00:07:04;;;;;;;1.50;1.40;;;;;;;29.50;61.03;97795.38;5008926;28;20217;-74
2021/09/16 00:09:31;;;;;;;2.00;1.60;;;;;;;29.61;59.77;97794.75;5012690;28;20230;-74
2021/09/16 00:11:59;;;;;;;2.27;1.70;;;;;;;30.08;58.12;97795.50;5010613;28;20204;-74
2021/09/16 00:14:26;;;;;;;1.60;1.50;;;;;;;30.28;56.58;97803.03;5012750;28;20757;-74
2021/09/16 00:16:53;;;;;;;1.80;1.27;;;;;;;30.39;55.90;97809.78;5009733;28;20230;-74
2021/09/16 00:19:22;;;;;;;3.33;1.50;;;;;;;30.27;56.72;97812.44;5012700;28;20223;-74
2021/09/16 00:21:50;;;;;;;2.10;1.73;;;;;;;29.47;59.62;97810.59;5008931;28;20199;-74
2021/09/16 00:24:17;;;;;;;1.33;1.20;;;;;;;29.30;60.70;97810.63;5011526;28;20223;-74
2021/09/16 00:26:44;;;;;;;1.77;1.40;;;;;;;28.90;61.69;97811.94;5011402;28;20241;-73
2021/09/16 00:29:12;;;;;;;2.00;1.50;;;;;;;29.05;62.80;97797.75;5012206;28;20265;-74
2021/09/16 00:31:39;;;;;;;2.03;1.50;;;;;;;29.63;59.71;97802.66;5009956;28;20199;-74
2021/09/16 00:34:07;;;;;;;2.93;1.57;;;;;;;29.53;59.12;97800.22;5008319;28;20207;-72
2021/09/16 00:36:37;;;;;;;2.90;1.43;;;;;;;29.42;60.82;97801.72;5011945;28;20208;-73
2021/09/16 00:39:04;;;;;;;2.63;1.50;;;;;;;29.58;59.63;97800.06;5011179;28;20207;-73
2021/09/16 00:41:31;;;;;;;1.50;1.23;;;;;;;29.92;57.43;97797.22;5008908;28;20203;-73
2021/09/16 00:43:59;;;;;;;1.77;1.30;;;;;;;29.85;57.19;97807.94;5011417;28;20207;-73
2021/09/16 00:46:27;;;;;;;1.37;1.10;;;;;;;29.76;58.55;97801.66;5004098;28;20230;-73
2021/09/16 00:48:54;;;;;;;2.57;1.00;;;;;;;30.20;55.73;97801.16;5011813;28;20262;-73
2021/09/16 00:51:21;;;;;;;1.37;1.27;;;;;;;30.05;56.33;97810.75;5011313;28;20630;-73
2021/09/16 00:53:51;;;;;;;3.80;1.30;;;;;;;29.86;56.57;97806.78;5011464;28;20207;-73
2021/09/16 00:56:20;;;;;;;3.93;1.23;;;;;;;29.11;59.19;97820.34;5005797;28;20212;-73
2021/09/16 00:58:50;;;;;;;2.10;1.20;;;;;;;29.52;58.55;97820.63;5010905;28;20199;-73
2021/09/16 01:01:17;;;;;;;1.67;1.27;;;;;;;30.32;55.59;97817.78;5009915;28;20223;-73
2021/09/16 01:03:45;;;;;;;1.87;1.27;;;;;;;30.06;56.41;97819.81;5010823;28;20265;-73
2021/09/16 01:06:12;;;;;;;1.30;1.10;;;;;;;30.07;56.26;97810.41;5011588;28;20234;-72
2021/09/16 01:08:40;;;;;;;3.63;1.40;;;;;;;30.05;55.60;97818.22;5011368;28;20207;-72
2021/09/16 01:11:09;;;;;;;1.67;1.20;;;;;;;29.86;56.38;97815.03;5010412;28;20223;-73
2021/09/16 01:13:36;;;;;;;1.63;1.50;;;;;;;29.29;58.65;97813.72;5008613;28;20738;-74
2021/09/16 01:16:04;;;;;;;2.07;1.10;;;;;;;30.22;56.10;97826.41;5011503;28;20199;-73
2021/09/16 01:18:31;;;;;;;1.07;0.97;;;;;;;30.37;54.89;97826.66;5010983;28;20195;-72
2021/09/16 01:20:58;;;;;;;2.17;1.20;;;;;;;30.35;55.40;97815.16;5011424;28;20219;-71
2021/09/16 01:23:27;;;;;;;1.43;1.13;;;;;;;29.99;58.09;97808.53;5011808;28;20210;-72
2021/09/16 01:25:54;;;;;;;1.93;1.20;;;;;;;30.18;56.92;97820.75;5002882;28;20227;-73
2021/09/16 01:28:22;;;;;;;3.80;1.10;;;;;;;29.58;61.22;97811.06;5003456;28;20210;-71
2021/09/16 01:30:49;;;;;;;2.63;1.47;;;;;;;28.90;67.51;97798.19;5011669;28;20229;-71
2021/09/16 01:33:17;;;;;;;5.63;1.50;;;;;;;28.12;73.33;97789.34;5011365;28;20211;-71
2021/09/16 01:35:44;;;;;;;3.30;1.70;;;;;;;29.33;67.63;97807.22;5004908;28;20210;-71
2021/09/16 01:38:12;;;;;;;3.63;1.40;;;;;;;29.27;66.60;97792.03;5011496;28;20195;-72
2021/09/16 01:40:40;;;;;;;5.30;1.40;;;;;;;27.34;81.50;97772.81;5010331;28;20242;-72
2021/09/16 01:43:08;;;;;;;3.70;1.60;;;;;;;28.31;75.87;97781.63;5011465;28;20207;-72
2021/09/16 01:45:35;;;;;;;2.07;1.57;;;;;;;28.72;73.76;97791.06;5012219;28;20227;-71
2021/09/16 01:48:02;;;;;;;3.27;1.30;;;;;;;28.16;79.59;97782.88;5010970;28;20200;-72
2021/09/16 01:50:30;;;;;;;3.03;1.90;;;;;;;28.95;71.54;97788.97;5011240;28;20225;-71
2021/09/16 01:52:57;;;;;;;3.97;1.60;;;;;;;28.98;71.34;97791.13;5004318;28;20210;-71
2021/09/16 01:55:24;;;;;;;4.70;1.70;;;;;;;28.88;72.80;97796.91;5003435;28;20207;-71
2021/09/16 01:57:53;;;;;;;2.50;1.43;;;;;;;29.20;71.07;97794.50;5009995;28;20201;-72
2021/09/16 02:00:21;;;;;;;1.97;1.57;;;;;;;29.09;70.74;97789.66;5011336;28;20240;-72
2021/09/16 02:02:48;;;;;;;5.30;1.60;;;;;;;29.75;66.74;97787.06;5011080;28;20214;-71
2021/09/16 02:05:16;;;;;;;2.67;1.60;;;;;;;29.28;70.67;97788.16;5009862;28;20230;-71
2021/09/16 02:07:43;;;;;;;2.57;1.43;;;;;;;28.99;72.29;97781.75;5013734;28;20203;-72
2021/09/16 02:10:11;;;;;;;1.47;1.37;;;;;;;29.38;69.34;97778.75;5015003;28;20566;-70
2021/09/16 02:12:38;;;;;;;5.90;1.90;;;;;;;29.59;67.81;97779.72;5015013;28;20203;-70
2021/09/16 02:15:08;;;;;;;3.37;1.60;;;;;;;29.72;68.57;97778.69;5014479;28;20214;-70
2021/09/16 02:17:35;;;;;;;2.37;1.23;;;;;;;30.05;65.10;97785.19;5012318;28;20215;-72
2021/09/16 02:20:03;;;;;;;5.30;1.50;;;;;;;29.30;68.28;97779.59;5003268;28;20228;-72
2021/09/16 02:22:30;;;;;;;4.57;1.70;;;;;;;29.81;67.02;97780.28;5006110;28;20208;-72
2021/09/16 02:24:57;;;;;;;3.30;1.63;;;;;;;29.28;69.46;97768.91;5011375;28;20229;-72
2021/09/16 02:27:25;;;;;;;4.30;1.40;;;;;;;29.17;68.51;97770.38;5014231;28;20217;-73
2021/09/16 02:29:52;;;;;;;2.70;1.47;;;;;;;29.64;66.88;97768.53;5014346;28;20238;-74
2021/09/16 02:32:21;;;;;;;1.87;1.33;;;;;;;29.52;68.09;97765.59;5012438;28;20693;-73
2021/09/16 02:34:48;;;;;;;3.77;1.47;;;;;;;29.09;70.66;97762.94;5010569;28;20272;-73
2021/09/16 02:37:16;;;;;;;5.60;1.90;;;;;;;29.25;70.26;97757.75;5013432;28;20716;-73
2021/09/16 02:39:43;;;;;;;2.50;1.70;;;;;;;29.08;70.61;97766.84;5013842;28;20258;-72
2021/09/16 02:42:10;;;;;;;2.60;1.40;;;;;;;29.61;68.47;97749.91;5005699;28;20206;-72
2021/09/16 02:44:37;;;;;;;2.43;1.40;;;;;;;29.48;70.43;97753.63;5012146;28;20690;-72
2021/09/16 02:47:05;;;;;;;1.70;1.33;;;;;;;29.67;68.13;97757.66;5005457;28;20210;-72
2021/09/16 02:49:34;;;;;;;3.73;1.77;;;;;;;29.38;68.19;97754.00;5010869;28;20219;-72
2021/09/16 02:52:01;;;;;;;1.67;1.40;;;;;;;29.65;65.82;97750.88;5013982;28;20203;-72
2021/09/16 02:54:28;;;;;;;1.97;1.40;;;;;;;29.54;68.13;97752.34;5014201;28;20579;-74
2021/09/16 02:56:55;;;;;;;3.13;1.50;;;;;;;28.82;73.17;97755.03;5013901;28;20272;-73
2021/09/16 02:59:23;;;;;;;2.67;1.60;;;;;;;29.00;70.48;97755.88;5013850;28;20227;-73
2021/09/16 03:01:50;;;;;;;2.30;1.50;;;;;;;28.77;73.02;97754.38;5009333;28;20202;-72
2021/09/16 03:04:17;;;;;;;1.90;1.70;;;;;;;29.77;67.72;97760.06;5007201;28;20211;-72
2021/09/16 03:06:46;;;;;;;2.03;1.30;;;;;;;30.08;64.51;97766.06;5013661;28;20230;-73
2021/09/16 03:09:13;;;;;;;3.93;1.40;;;;;;;30.09;63.48;97758.56;5010731;28;20214;-71
2021/09/16 03:11:41;;;;;;;2.07;1.30;;;;;;;30.23;62.92;97767.44;5013834;28;20660;-73
2021/09/16 03:14:08;;;;;;;2.63;1.30;;;;;;;30.23;62.52;97762.75;5029620;23;20191;-71
2021/09/16 03:16:35;;;;;;;4.37;1.80;;;;;;;29.93;63.23;97754.78;5033289;28;20195;-71
2021/09/16 03:19:02;;;;;;;1.37;1.27;;;;;;;30.08;63.42;97756.97;5024740;28;20568;-71
2021/09/16 03:21:30;;;;;;;2.77;1.60;;;;;;;29.80;63.58;97753.88;5032432;28;20678;-71
2021/09/16 03:23:58;;;;;;;2.70;1.47;;;;;;;30.25;62.31;97748.66;5029043;28;20662;-71
2021/09/16 03:26:26;;;;;;;2.80;1.40;;;;;;;30.15;62.60;97749.03;5027723;28;20237;-71
2021/09/16 03:28:53;;;;;;;2.63;1.47;;;;;;;29.96;62.82;97745.88;5031483;28;20659;-71
2021/09/16 03:31:20;;;;;;;2.37;1.30;;;;;;;30.05;62.48;97741.94;5024031;28;20209;-72
2021/09/16 03:33:47;;;;;;;2.13;1.10;;;;;;;29.90;62.10;97752.72;5028739;28;20581;-71
2021/09/16 03:36:15;;;;;;;1.33;1.20;;;;;;;30.12;62.22;97749.69;5024846;28;20203;-71
2021/09/16 03:38:42;;;;;;;1.77;1.30;;;;;;;30.17;62.12;97753.09;5032819;28;20202;-70
2021/09/16 03:41:10;;;;;;;1.73;1.20;;;;;;;30.24;61.61;97747.03;5032562;28;20217;-71
2021/09/16 03:43:38;;;;;;;3.43;1.60;;;;;;;29.90;63.13;97753.50;5029998;28;20203;-71
2021/09/16 03:46:05;;;;;;;3.10;1.50;;;;;;;30.05;62.28;97757.66;5020918;28;20722;-71
2021/09/16 03:48:32;;;;;;;2.73;1.40;;;;;;;29.68;64.33;97744.69;5030094;28;20199;-71
2021/09/16 03:51:00;;;;;;;3.87;1.67;;;;;;;29.96;63.38;97749.44;5023786;28;20202;-71
2021/09/16 03:53:27;;;;;;;1.67;1.40;;;;;;;30.15;62.43;97749.84;5032235;28;20591;-71
2021/09/16 03:55:54;;;;;;;4.20;1.30;;;;;;;30.28;62.29;97745.22;5027982;28;20212;-72
2021/09/16 03:58:23;;;;;;;2.23;1.23;;;;;;;29.52;64.84;97757.34;5029879;28;20205;-72
2021/09/16 04:00:50;;;;;;;4.03;1.80;;;;;;;29.39;65.81;97759.16;5023249;28;20228;-72
2021/09/16 04:03:17;;;;;;;2.30;1.50;;;;;;;29.34;66.95;97750.31;5013752;28;20207;-72
2021/09/16 04:05:44;;;;;;;2.70;1.37;;;;;;;28.59;70.46;97748.09;5023305;28;20265;-72
2021/09/16 04:08:12;;;;;;;2.87;1.30;;;;;;;29.73;65.45;97748.09;5016994;28;20689;-71
2021/09/16 04:10:39;;;;;;;3.57;1.30;;;;;;;29.78;64.87;97745.16;5023716;28;20217;-71
2021/09/16 04:13:07;;;;;;;2.43;1.50;;;;;;;29.93;63.20;97763.84;5031612;28;20224;-71
2021/09/16 04:15:35;;;;;;;2.47;1.30;;;;;;;29.64;65.09;97747.31;5028696;28;20230;-71
2021/09/16 04:18:03;;;;;;;2.73;2.23;;;;;;;28.98;69.84;97741.66;5026051;28;20202;-72
2021/09/16 04:20:30;;;;;;;2.87;1.60;;;;;;;29.47;65.08;97739.09;5030260;28;20213;-72
2021/09/16 04:22:57;;;;;;;1.87;1.50;;;;;;;29.46;66.60;97748.50;5027455;28;20199;-70
2021/09/16 04:25:25;;;;;;;2.53;1.57;;;;;;;29.91;64.91;97757.06;5026646;28;20231;-71
2021/09/16 04:27:52;;;;;;;2.73;1.40;;;;;;;29.72;65.60;97751.97;5020220;28;20204;-71
2021/09/16 04:30:19;;;;;;;4.27;1.67;;;;;;;30.48;62.63;97758.19;5026930;28;20208;-71
2021/09/16 04:32:48;;;;;;;2.60;1.60;;;;;;;30.03;66.28;97746.16;5028620;28;20200;-72
2021/09/16 04:35:15;;;;;;;2.50;1.50;;;;;;;29.94;64.29;97754.47;5023434;28;20226;-72
2021/09/16 04:37:42;;;;;;;1.80;1.60;;;;;;;30.37;63.87;97762.50;5030139;28;20211;-72
2021/09/16 04:40:10;;;;;;;5.43;1.50;;;;;;;30.54;62.22;97767.88;5029506;28;20221;-72
2021/09/16 04:42:38;;;;;;;2.00;1.40;;;;;;;30.16;63.54;97776.22;5020638;28;20198;-71
2021/09/16 04:45:06;;;;;;;2.87;1.53;;;;;;;29.63;66.85;97764.97;5026682;28;20245;-70
2021/09/16 04:47:33;;;;;;;2.90;1.60;;;;;;;29.64;66.50;97768.53;5018606;28;20206;-75
2021/09/16 04:50:02;;;;;;;3.03;1.50;;;;;;;29.72;65.80;97773.19;5022913;28;20205;-71
2021/09/16 04:52:30;;;;;;;3.80;1.83;;;;;;;29.26;68.95;97770.38;5026988;28;20229;-78
2021/09/16 04:54:57;;;;;;;3.33;1.90;;;;;;;30.04;64.71;97769.78;5023939;28;20232;-73
2021/09/16 04:57:24;;;;;;;2.67;1.63;;;;;;;30.18;64.11;97770.38;5018689;28;20210;-75
2021/09/16 04:59:53;;;;;;;3.40;2.17;;;;;;;29.92;65.89;97767.75;5015713;28;20208;-71
2021/09/16 05:02:20;;;;;;;2.60;1.60;;;;;;;30.26;63.93;97769.53;5019424;28;20210;-75
2021/09/16 05:04:48;;;;;;;3.43;1.93;;;;;;;30.56;62.29;97771.91;5019185;28;20230;-70
2021/09/16 05:07:16;;;;;;;2.60;1.87;;;;;;;30.32;61.98;97776.47;5019545;28;20713;-72
2021/09/16 05:09:44;;;;;;;2.63;1.83;;;;;;;30.19;64.20;97770.06;5023096;28;20209;-77
2021/09/16 05:12:11;;;;;;;6.67;2.03;;;;;;;30.00;64.24;97766.09;5025882;28;20206;-73
2021/09/16 05:14:38;;;;;;;2.57;1.70;;;;;;;29.95;65.74;97760.78;5022629;28;20238;-72
2021/09/16 05:17:05;;;;;;;5.13;1.80;;;;;;;29.66;67.96;97764.31;5019602;28;20218;-71
2021/09/16 05:19:33;;;;;;;2.10;1.70;;;;;;;30.20;65.12;97782.69;5021939;28;20226;-72
2021/09/16 05:22:00;;;;;;;3.17;2.13;;;;;;;29.90;65.96;97780.22;5025157;28;20206;-73
2021/09/16 05:24:28;;;;;;;1.93;1.73;;;;;;;30.08;63.32;97795.50;5029191;28;20226;-75
2021/09/16 05:26:56;;;;;;;2.43;2.00;;;;;;;30.44;63.37;97791.13;5025197;28;20227;-74
2021/09/16 05:29:23;;;;;;;5.03;2.00;;;;;;;30.37;64.65;97784.53;5028191;28;20211;-72
2021/09/16 05:31:50;;;;;;;4.50;1.93;;;;;;;30.47;64.25;97781.38;5022571;28;20218;-74
2021/09/16 05:34:18;;;;;;;5.00;2.07;;;;;;;30.10;64.80;97783.03;5023504;28;20219;-78
2021/09/16 05:36:45;;;;;;;3.43;1.60;;;;;;;30.06;64.89;97778.53;5022592;28;20219;-77
2021/09/16 05:39:12;;;;;;;6.20;2.07;;;;;;;29.85;67.28;97766.66;5017668;28;20218;-68
2021/09/16 05:41:41;;;;;;;5.87;2.27;;;;;;;29.95;66.40;97775.34;5030151;28;20293;-66
2021/09/16 05:44:08;;;;;;;2.97;1.97;;;;;;;29.88;65.61;97779.75;5024175;28;20237;-67
2021/09/16 05:46:35;;;;;;;4.77;2.13;;;;;;;29.06;71.09;97780.13;5028232;28;20240;-67
2021/09/16 05:49:03;;;;;;;8.77;2.57;;;;;;;28.34;75.35;97776.31;5027966;28;20209;-67
2021/09/16 05:51:30;;;;;;;5.73;2.40;;;;;;;29.73;69.38;97780.28;5030736;28;20213;-73
2021/09/16 05:53:58;;;;;;;18.13;4.03;;;;;;;29.71;69.48;97783.38;5025642;28;20216;-73
2021/09/16 05:56:25;;;;;;;12.17;3.10;;;;;;;29.38;72.44;97776.81;5033847;28;20199;-73
2021/09/16 05:58:54;;;;;;;9.27;2.70;;;;;;;29.68;70.35;97783.22;5023140;28;20202;-72
2021/09/16 06:01:22;;;;;;;7.53;2.70;;;;;;;28.68;74.92;97781.84;5022322;28;20595;-73
2021/09/16 06:03:49;;;;;;;12.53;2.83;;;;;;;28.66;77.13;97777.81;5028485;28;20667;-73
2021/09/16 06:06:17;;;;;;;5.97;2.57;;;;;;;28.85;76.28;97783.81;5019694;28;20226;-73
2021/09/16 06:08:44;;;;;;;4.13;2.13;;;;;;;29.08;73.19;97785.28;5031770;28;20206;-73
2021/09/16 06:11:11;;;;;;;4.43;1.93;;;;;;;29.45;72.40;97785.34;5026987;28;20212;-73
2021/09/16 06:13:39;;;;;;;4.13;2.27;;;;;;;28.93;72.79;97796.75;5025882;28;20206;-73
2021/09/16 06:16:08;;;;;;;3.00;2.10;;;;;;;29.54;70.77;97796.34;5026450;28;20242;-73
2021/09/16 06:18:35;;;;;;;5.00;2.43;;;;;;;30.04;68.93;97792.63;5033281;28;20224;-73
2021/09/16 06:21:03;;;;;;;4.40;2.20;;;;;;;28.56;76.12;97791.88;5027184;28;20681;-73
2021/09/16 06:23:31;;;;;;;4.40;2.40;;;;;;;29.71;71.41;97797.16;5028359;28;20269;-73
2021/09/16 06:25:58;;;;;;;5.63;2.60;;;;;;;28.91;73.60;97794.31;5019767;28;20233;-74
2021/09/16 06:28:25;;;;;;;3.23;2.50;;;;;;;29.01;75.38;97791.28;5029752;28;20217;-73
2021/09/16 06:30:52;;;;;;;7.30;2.70;;;;;;;30.50;67.22;97797.25;5029663;28;20210;-73
2021/09/16 06:33:21;;;;;;;3.60;2.33;;;;;;;30.50;66.41;97789.00;5023344;28;20550;-73
2021/09/16 06:35:48;;;;;;;3.07;2.00;;;;;;;30.01;66.63;97807.03;5025880;28;20217;-73
2021/09/16 06:38:16;;;;;;;4.17;2.93;;;;;;;30.18;67.69;97809.75;5019254;28;20215;-73
2021/09/16 06:40:43;;;;;;;5.90;2.33;;;;;;;30.22;68.19;97804.38;5025253;28;20206;-74
2021/09/16 06:43:10;;;;;;;3.37;1.97;;;;;;;30.44;67.56;97813.16;5034382;28;20234;-73
2021/09/16 06:45:37;;;;;;;3.77;2.37;;;;;;;30.27;68.54;97809.69;5029909;28;20222;-73
2021/09/16 06:48:05;;;;;;;4.23;2.63;;;;;;;30.30;67.97;97811.81;5028205;28;20203;-73
2021/09/16 06:50:34;;;;;;;7.23;2.27;;;;;;;30.39;67.88;97815.28;5024549;28;20206;-74
2021/09/16 06:53:01;;;;;;;3.80;2.20;;;;;;;30.42;65.17;97818.22;5020541;28;20241;-73
2021/09/16 06:55:28;;;;;;;3.97;2.17;;;;;;;30.31;67.25;97813.41;5023472;28;20219;-72
2021/09/16 06:57:56;;;;;;;3.43;2.20;;;;;;;30.34;66.74;97824.56;5034222;28;20207;-73
2021/09/16 07:00:24;;;;;;;2.87;2.00;;;;;;;30.64;65.47;97828.91;5026452;28;20241;-73
2021/09/16 07:02:51;;;;;;;3.50;2.07;;;;;;;30.10;67.76;97829.81;5034024;28;20205;-73
2021/09/16 07:05:19;;;;;;;6.40;1.97;;;;;;;30.03;69.67;97820.47;5022672;28;20231;-74
2021/09/16 07:07:48;;;;;;;3.70;1.93;;;;;;;30.85;65.94;97828.94;5028783;28;20227;-73
2021/09/16 07:10:15;;;;;;;11.90;2.97;;;;;;;30.10;69.05;97829.03;5014681;28;20203;-72
2021/09/16 07:12:43;;;;;;;5.83;2.27;;;;;;;30.41;66.90;97827.59;5032793;28;20217;-72
2021/09/16 07:15:10;;;;;;;12.87;3.00;;;;;;;29.85;70.94;97839.00;5031131;28;20235;-72
2021/09/16 07:17:38;;;;;;;6.77;2.40;;;;;;;29.98;69.13;97839.91;5022736;28;20371;-72
2021/09/16 07:20:07;;;;;;;6.90;1.90;;;;;;;30.42;67.65;97848.50;5031481;28;20232;-72
2021/09/16 07:22:34;;;;;;;5.27;1.97;;;;;;;30.64;65.64;97859.22;5018488;28;20217;-73
2021/09/16 07:25:02;;;;;;;5.00;1.80;;;;;;;29.02;73.10;97850.59;5033580;28;20226;-72
2021/09/16 07:27:30;;;;;;;3.97;2.03;;;;;;;30.20;67.69;97851.53;5024926;28;20229;-72
2021/09/16 07:29:57;;;;;;;5.30;2.20;;;;;;;29.44;73.24;97846.22;5026464;28;20202;-72
2021/09/16 07:32:24;;;;;;;5.93;3.23;;;;;;;28.25;77.74;97846.84;5029419;28;20207;-72
2021/09/16 07:34:52;;;;;;;6.23;3.73;;;;;;;27.76;84.09;97843.56;5025144;28;20227;-72
2021/09/16 07:37:19;;;;;;;7.17;4.70;;;;;;;28.79;81.47;97856.53;5028577;28;20206;-72
2021/09/16 07:39:46;;;;;;;9.23;6.27;;;;;;;28.60;81.07;97858.75;5024028;28;20203;-72
2021/09/16 07:42:15;;;;;;;11.00;6.53;;;;;;;27.92;80.87;97869.47;5022136;28;20211;-72
2021/09/16 07:44:42;;;;;;;14.70;7.13;;;;;;;28.43;85.02;97864.22;5024093;28;20234;-72
2021/09/16 07:47:10;;;;;;;8.97;5.37;;;;;;;27.81;87.65;97868.94;5030175;28;20228;-72
2021/09/16 07:49:37;;;;;;;17.63;6.13;;;;;;;29.07;82.33;97874.34;5026417;28;20207;-73
2021/09/16 07:52:05;;;;;;;11.07;5.33;;;;;;;28.38;81.62;97878.88;5021763;28;20557;-73
2021/09/16 07:54:32;;;;;;;9.43;5.83;;;;;;;29.03;82.20;97882.44;5028715;28;20230;-73
2021/09/16 07:56:59;;;;;;;14.10;6.03;;;;;;;27.67;85.38;97887.38;5026684;28;20200;-73
2021/09/16 07:59:28;;;;;;;8.40;4.70;;;;;;;28.23;86.45;97892.22;5022661;28;20202;-73
2021/09/16 08:01:56;;;;;;;7.60;3.90;;;;;;;28.40;81.40;97904.09;5027245;28;20195;-73
2021/09/16 08:04:23;;;;;;;6.93;3.93;;;;;;;28.86;82.59;97903.56;5020503;28;20856;-73
2021/09/16 08:06:50;;;;;;;5.43;3.73;;;;;;;27.84;85.56;97901.22;5025009;28;20231;-73
2021/09/16 08:09:18;;;;;;;5.17;3.10;;;;;;;28.55;83.99;97903.66;5024183;28;20211;-73
2021/09/16 08:11:45;;;;;;;4.33;3.37;;;;;;;28.48;80.87;97914.28;5030760;28;20210;-73
2021/09/16 08:14:13;;;;;;;3.87;2.50;;;;;;;28.09;84.62;97911.53;5021488;28;20228;-73
2021/09/16 08:16:41;;;;;;;9.03;3.27;;;;;;;28.10;83.82;97912.31;5030777;28;20220;-73
2021/09/16 08:19:09;;;;;;;5.23;2.30;;;;;;;27.54;100.00;97912.94;5021382;28;20294;-74
2021/09/16 08:21:37;;;;;;;3.07;2.40;;;;;;;28.74;95.03;97908.88;5029363;28;20217;-73
2021/09/16 08:24:04;;;;;;;6.47;2.70;;;;;;;28.28;87.87;97920.31;5024170;28;20195;-73
2021/09/16 08:26:32;;;;;;;2.47;1.97;;;;;;;29.32;82.68;97918.34;5020950;28;20718;-73
2021/09/16 08:28:59;;;;;;;2.50;1.80;;;;;;;27.67;92.76;97925.75;5023720;28;20202;-74
2021/09/16 08:31:26;;;;;;;3.73;2.40;;;;;;;28.27;85.75;97928.91;5032284;28;20229;-72
2021/09/16 08:33:55;;;;;;;2.10;1.90;;;;;;;28.72;86.07;97931.16;5024281;28;20194;-72
2021/09/16 08:36:22;;;;;;;2.23;1.47;;;;;;;27.89;84.59;97934.03;5020316;28;20210;-72
2021/09/16 08:38:50;;;;;;;3.77;1.63;;;;;;;27.83;85.85;97931.72;5020904;28;20198;-72
2021/09/16 08:41:17;;;;;;;2.20;1.60;;;;;;;27.48;91.05;97922.41;5019974;28;20215;-72
2021/09/16 08:43:45;;;;;;;2.23;1.80;;;;;;;28.11;87.69;97930.41;5023074;28;20232;-72
2021/09/16 08:46:12;;;;;;;2.03;1.20;;;;;;;28.93;81.67;97948.66;5024246;28;20778;-72
2021/09/16 08:48:39;;;;;;;1.40;1.30;;;;;;;28.46;83.33;97941.28;5028607;28;20232;-72
2021/09/16 08:51:08;;;;;;;3.80;1.47;;;;;;;27.90;82.87;97948.53;5026887;28;20207;-72
2021/09/16 08:53:35;;;;;;;1.80;1.10;;;;;;;27.38;86.38;97941.84;5023671;28;20207;-72
2021/09/16 08:56:06;;;;;;;1.83;1.23;;;;;;;27.61;86.97;97953.66;5028794;28;20227;-72
2021/09/16 08:58:33;;;;;;;2.63;1.10;;;;;;;27.42;90.56;97948.31;5029924;28;20248;-72
2021/09/16 09:01:01;;;;;;;7.50;1.50;;;;;;;28.26;83.34;97960.19;5023589;28;20206;-72
2021/09/16 09:03:28;;;;;;;8.87;1.93;;;;;;;27.80;87.49;97957.00;5021044;28;20244;-72
2021/09/16 09:05:56;;;;;;;1.67;1.47;;;;;;;27.53;87.15;97959.88;5024064;28;20228;-72
2021/09/16 09:08:26;;;;;;;5.40;2.17;;;;;;;28.47;82.76;97964.84;5024226;28;20230;-72
2021/09/16 09:10:55;;;;;;;11.97;2.40;;;;;;;28.54;79.96;97972.63;5026164;28;20211;-72
2021/09/16 09:13:32;;;;;;;6.20;2.40;;;;;;;28.15;78.45;97972.56;5026817;28;20221;-72
2021/09/16 09:16:02;;;;;;;6.97;3.67;;;;;;;-139.38;100.00;63230.50;5020413;28;20231;-71
2021/09/16 09:18:41;;;;;;;5.00;3.83;;;;;;;25.43;100.00;97988.56;5022660;28;20205;-71
2021/09/16 09:21:09;;;;;;;8.97;4.43;;;;;;;26.83;97.41;97972.38;5029531;28;20684;-72
2021/09/16 09:23:40;;;;;;;6.67;4.90;;;;;;;26.69;95.22;97982.53;5025451;28;20266;-71
2021/09/16 09:26:22;;;;;;;7.30;4.47;;;;;;;-139.38;100.00;63230.50;5018321;28;20240;-71
2021/09/16 09:28:51;;;;;;;8.33;4.80;;;;;;;-139.38;100.00;63230.50;5031424;28;20238;-71
2021/09/16 09:31:20;;;;;;;5.80;4.13;;;;;;;-139.38;100.00;63230.50;5016171;28;20212;-71
2021/09/16 09:33:47;;;;;;;7.40;4.57;;;;;;;-139.38;100.00;63230.50;5029327;28;20790;-71
2021/09/16 09:36:18;;;;;;;5.23;3.77;;;;;;;-139.38;100.00;63230.50;5023497;28;20700;-72
2021/09/16 09:38:53;;;;;;;3.80;3.20;;;;;;;27.55;87.10;97979.53;5015620;28;20193;-71
2021/09/16 09:41:25;;;;;;;6.03;3.93;;;;;;;27.86;88.65;97974.97;5023243;28;20207;-71
2021/09/16 09:44:02;;;;;;;6.67;4.20;;;;;;;27.03;90.15;97980.16;5022157;28;20208;-71
2021/09/16 09:46:30;;;;;;;7.43;5.37;;;;;;;26.25;98.40;97985.81;5027054;28;20871;-71
2021/09/16 09:49:02;;;;;;;8.33;5.40;;;;;;;26.26;96.38;97982.00;5017346;28;20221;-71
2021/09/16 09:51:37;;;;;;;9.57;5.43;;;;;;;27.12;88.13;97995.56;5018699;28;20212;-71
2021/09/16 09:54:17;;;;;;;9.73;6.07;;;;;;;26.83;91.99;97994.28;5025861;28;20681;-71
2021/09/16 09:56:59;;;;;;;12.47;8.33;;;;;;;27.14;90.99;97995.25;5028404;28;20215;-72
2021/09/16 09:59:26;;;;;;;11.17;7.80;;;;;;;26.69;94.08;97985.25;5023223;28;20212;-71
2021/09/16 10:02:03;;;;;;;10.33;7.10;;;;;;;27.06;86.06;97993.25;5024929;28;20205;-71
2021/09/16 10:04:31;;;;;;;18.67;9.03;;;;;;;27.21;90.45;97991.03;5020025;28;20226;-72
2021/09/16 10:06:59;;;;;;;12.27;8.50;;;;;;;27.33;87.97;97991.31;5027860;28;20270;-71
2021/09/16 10:09:28;;;;;;;16.33;8.97;;;;;;;27.26;89.63;97990.91;5023681;28;20201;-71
2021/09/16 10:11:57;;;;;;;17.33;10.27;;;;;;;27.08;87.61;97993.75;5016181;28;20206;-71
2021/09/16 10:14:25;;;;;;;15.07;10.30;;;;;;;26.86;90.36;97986.28;5029876;28;20243;-71
2021/09/16 10:16:52;;;;;;;15.80;9.40;;;;;;;26.78;89.26;97995.22;5017069;28;20209;-71
2021/09/16 10:19:20;;;;;;;16.30;10.70;;;;;;;27.02;88.76;97987.59;5020040;28;20203;-72
2021/09/16 10:21:47;;;;;;;13.17;9.57;;;;;;;26.72;90.49;97993.69;5019354;28;20202;-72
2021/09/16 10:24:18;;;;;;;16.50;11.07;;;;;;;26.87;87.87;98000.78;5026334;28;20225;-71
2021/09/16 10:26:49;;;;;;;18.37;10.87;;;;;;;27.53;87.25;98001.00;5018686;28;20204;-72
2021/09/16 10:29:37;;;;;;;17.47;10.47;;;;;;;27.89;80.21;98005.34;5026605;28;20572;-72
2021/09/16 10:32:39;;;;;;;14.30;9.07;;;;;;;26.34;85.82;98000.44;5023255;28;20202;-71
2021/09/16 10:35:20;;;;;;;11.50;8.60;;;;;;;26.19;91.67;97997.97;5028953;28;20236;-72
2021/09/16 10:37:48;;;;;;;11.90;9.07;;;;;;;26.23;88.20;98000.91;5031416;28;20201;-73
2021/09/16 10:40:22;;;;;;;12.97;9.00;;;;;;;27.51;81.11;98001.28;5025321;28;20567;-72
2021/09/16 10:42:52;;;;;;;10.77;7.53;;;;;;;26.96;85.68;97993.47;5023605;28;20206;-71
2021/09/16 10:45:28;;;;;;;13.63;8.93;;;;;;;27.53;82.12;97993.59;5027463;28;20732;-72
2021/09/16 10:48:28;;;;;;;13.30;9.07;;;;;;;28.17;78.16;97995.03;5033263;28;20585;-72
2021/09/16 10:51:02;;;;;;;12.20;8.30;;;;;;;27.07;81.38;98003.91;5022589;28;20214;-73
2021/09/16 10:53:42;;;;;;;11.83;8.80;;;;;;;27.78;79.43;97998.47;5016355;28;20210;-73
2021/09/16 10:56:39;;;;;;;16.30;10.20;;;;;;;27.30;81.73;98007.53;5029928;28;20226;-73
2021/09/16 10:59:09;;;;;;;13.00;9.53;;;;;;;27.53;80.52;98018.25;5033697;28;20200;-72
2021/09/16 11:01:55;;;;;;;17.43;11.27;;;;;;;28.27;74.83;98024.97;5024383;28;20200;-72
2021/09/16 11:04:23;;;;;;;16.17;10.33;;;;;;;27.04;86.52;97999.03;5022282;28;20223;-72
2021/09/16 11:06:50;;;;;;;17.23;11.23;;;;;;;27.23;79.17;98009.91;5021740;28;20206;-72
2021/09/16 11:09:26;;;;;;;16.27;10.77;;;;;;;28.48;72.55;98026.88;5020252;28;20742;-73
2021/09/16 11:11:55;;;;;;;16.27;11.13;;;;;;;28.87;72.15;98020.56;5022800;28;20204;-73
2021/09/16 11:14:33;;;;;;;16.30;11.03;;;;;;;28.68;70.21;98028.28;5027763;28;20837;-72
2021/09/16 11:17:01;;;;;;;16.83;11.50;;;;;;;27.35;74.77;98018.38;5022568;28;20199;-70
2021/09/16 11:19:28;;;;;;;18.40;11.77;;;;;;;25.90;82.87;98021.16;5023619;28;20205;-73
2021/09/16 11:22:07;;;;;;;18.10;10.67;;;;;;;28.42;73.26;98024.59;5026028;28;20199;-74
2021/09/16 11:24:37;;;;;;;18.83;11.50;;;;;;;28.33;73.57;98024.50;5029770;28;20703;-73
2021/09/16 11:27:05;;;;;;;18.97;11.50;;;;;;;28.45;73.06;98021.22;5023086;28;20682;-71
2021/09/16 11:29:43;;;;;;;16.43;11.33;;;;;;;27.71;71.73;98028.25;5025000;28;20233;-71
2021/09/16 11:32:11;;;;;;;18.13;10.53;;;;;;;26.45;79.56;98017.47;5025280;28;20566;-70
2021/09/16 11:34:50;;;;;;;17.17;10.77;;;;;;;26.91;72.17;98043.69;5023312;28;20230;-72
2021/09/16 11:37:18;;;;;;;25.77;10.97;;;;;;;27.93;71.69;98038.47;5030796;28;20203;-71
2021/09/16 11:39:56;;;;;;;19.27;10.70;;;;;;;27.75;73.36;98033.91;5023681;28;20222;-71